createdAt,value
2023-03-26T00:00:22.306Z,1.53
2023-03-26T00:05:24.000Z,2.17
2023-03-26T00:10:25.698Z,1.60
2023-03-26T00:15:27.313Z,1.80
2023-03-26T00:20:32.814Z,1.80
2023-03-26T00:25:34.866Z,2.00
2023-03-26T00:30:36.527Z,2.03
2023-03-26T00:35:38.503Z,1.83
2023-03-26T00:40:44.106Z,2.00
2023-03-26T00:45:57.163Z,1.97
2023-03-26T00:50:59.039Z,1.90
2023-03-26T00:56:00.943Z,1.83
2023-03-26T01:01:06.856Z,2.03
2023-03-26T01:06:13.105Z,1.87
2023-03-26T01:11:18.645Z,1.70
2023-03-26T01:16:30.944Z,1.90
2023-03-26T01:21:34.542Z,1.93
2023-03-26T01:26:48.027Z,1.97
2023-03-26T01:31:55.388Z,2.13
2023-03-26T01:37:22.105Z,2.00
2023-03-26T01:42:49.165Z,2.37
2023-03-26T01:47:50.938Z,2.57
2023-03-26T01:52:53.624Z,1.80
2023-03-26T01:58:00.788Z,1.90
2023-03-26T02:03:08.804Z,1.70
2023-03-26T02:08:25.619Z,2.07
2023-03-26T02:13:27.541Z,1.83
2023-03-26T02:18:39.055Z,2.43
2023-03-26T02:23:46.883Z,2.43
2023-03-26T02:28:49.208Z,1.67
2023-03-26T02:33:50.843Z,1.70
2023-03-26T02:38:53.500Z,1.83
2023-03-26T02:43:55.751Z,2.07
2023-03-26T02:49:02.617Z,1.77
2023-03-26T02:54:05.051Z,2.30
2023-03-26T02:59:28.353Z,2.03
2023-03-26T03:04:52.950Z,1.73
2023-03-26T03:09:54.636Z,2.33
2023-03-26T03:15:16.323Z,2.20
2023-03-26T03:20:18.130Z,1.77
2023-03-26T03:25:22.267Z,2.00
2023-03-26T03:30:25.260Z,1.73
2023-03-26T03:35:49.700Z,2.27
2023-03-26T03:40:53.323Z,2.17
2023-03-26T03:45:55.418Z,1.83
2023-03-26T03:51:18.507Z,2.13
2023-03-26T03:56:26.234Z,1.73
2023-03-26T04:01:48.511Z,2.20
2023-03-26T04:07:10.376Z,1.60
2023-03-26T04:12:38.308Z,1.97
2023-03-26T04:17:42.771Z,2.30
2023-03-26T04:22:46.844Z,1.90
2023-03-26T04:27:52.382Z,1.70
2023-03-26T04:33:15.243Z,1.80
2023-03-26T04:38:19.561Z,2.00
2023-03-26T04:43:24.619Z,2.07
2023-03-26T04:48:45.055Z,1.80
2023-03-26T04:53:57.865Z,2.00
2023-03-26T04:59:13.854Z,1.80
2023-03-26T05:04:16.423Z,1.87
2023-03-26T05:09:18.258Z,2.17
2023-03-26T05:14:40.499Z,2.20
2023-03-26T05:19:49.197Z,2.00
2023-03-26T05:24:52.165Z,1.67
2023-03-26T05:30:00.862Z,1.83
2023-03-26T05:35:03.898Z,2.53
2023-03-26T05:40:11.806Z,1.67
2023-03-26T05:45:22.318Z,2.20
2023-03-26T05:50:24.354Z,2.00
2023-03-26T05:55:29.630Z,2.20
2023-03-26T06:01:16.777Z,1.93
2023-03-26T06:06:37.292Z,1.60
2023-03-26T06:11:39.905Z,2.40
2023-03-26T06:16:42.322Z,2.60
2023-03-26T06:21:55.354Z,1.90
2023-03-26T06:27:01.022Z,2.07
2023-03-26T06:32:38.415Z,1.90
2023-03-26T06:37:47.414Z,2.27
2023-03-26T06:43:07.684Z,2.00
2023-03-26T06:48:33.699Z,1.97
2023-03-26T06:53:54.156Z,2.50
2023-03-26T06:59:14.689Z,2.03
2023-03-26T07:04:35.399Z,2.27
2023-03-26T07:09:55.515Z,2.30
2023-03-26T07:15:24.186Z,2.50
2023-03-26T07:20:52.333Z,2.57
2023-03-26T07:25:55.965Z,3.10
2023-03-26T07:31:39.021Z,2.23
2023-03-26T07:36:56.335Z,2.63
2023-03-26T07:42:39.874Z,2.60
2023-03-26T07:48:29.616Z,2.27
2023-03-26T07:53:47.696Z,2.03
2023-03-26T07:59:29.688Z,2.20
2023-03-26T08:04:46.252Z,2.03
2023-03-26T08:10:21.015Z,2.27
2023-03-26T08:15:39.087Z,1.93
2023-03-26T08:20:47.797Z,1.70
2023-03-26T08:26:09.397Z,2.10
2023-03-26T08:31:11.965Z,2.40
2023-03-26T08:36:13.774Z,1.47
2023-03-26T08:41:46.274Z,1.50
2023-03-26T08:47:18.743Z,1.83
2023-03-26T08:52:49.869Z,1.63
2023-03-26T08:58:28.926Z,1.60
2023-03-26T09:04:08.890Z,1.60
2023-03-26T09:09:46.005Z,1.80
2023-03-26T09:15:16.455Z,1.70
2023-03-26T09:20:59.663Z,1.60
2023-03-26T09:26:07.929Z,1.70
2023-03-26T09:31:21.656Z,1.73
2023-03-26T09:36:38.462Z,1.67
2023-03-26T09:42:07.046Z,1.67
2023-03-26T09:47:11.956Z,1.80
2023-03-26T09:52:58.010Z,1.83
2023-03-26T09:58:04.818Z,2.00
2023-03-26T10:03:38.769Z,1.67
2023-03-26T10:08:44.690Z,2.07
2023-03-26T10:14:14.189Z,1.50
2023-03-26T10:19:35.944Z,1.77
2023-03-26T10:24:56.137Z,1.60
2023-03-26T10:30:10.156Z,1.70
2023-03-26T10:35:26.462Z,1.70
2023-03-26T10:40:43.666Z,1.57
2023-03-26T10:45:57.042Z,1.67
2023-03-26T10:51:34.412Z,1.60
2023-03-26T10:56:41.396Z,1.63
2023-03-26T11:02:06.639Z,1.30
2023-03-26T11:07:23.106Z,1.40
2023-03-26T11:12:31.420Z,1.63
2023-03-26T11:18:01.705Z,1.60
2023-03-26T11:23:31.153Z,1.30
2023-03-26T11:28:42.076Z,1.37
2023-03-26T11:34:09.388Z,1.10
2023-03-26T11:39:14.038Z,1.17
2023-03-26T11:44:21.746Z,1.00
2023-03-26T11:49:23.355Z,1.03
2023-03-26T11:54:24.969Z,0.80
2023-03-26T11:59:29.720Z,0.97
2023-03-26T12:04:35.119Z,1.03
2023-03-26T12:09:37.289Z,0.77
2023-03-26T12:14:42.623Z,0.60
2023-03-26T12:19:45.732Z,0.60
2023-03-26T12:25:01.349Z,0.70
2023-03-26T12:30:25.410Z,0.53
2023-03-26T12:35:29.462Z,0.67
2023-03-26T12:40:36.648Z,0.70
2023-03-26T12:45:41.816Z,0.60
2023-03-26T12:50:46.346Z,0.63
2023-03-26T12:55:54.332Z,0.73
2023-03-26T13:01:06.003Z,0.67
2023-03-26T13:06:18.724Z,0.60
2023-03-26T13:11:31.327Z,0.67
2023-03-26T13:16:54.425Z,0.50
2023-03-26T13:22:24.516Z,0.70
2023-03-26T13:27:35.416Z,0.60
2023-03-26T13:32:49.091Z,0.60
2023-03-26T13:38:06.355Z,0.60
2023-03-26T13:43:26.282Z,0.60
2023-03-26T13:49:05.817Z,0.60
2023-03-26T13:54:28.869Z,0.70
2023-03-26T13:59:34.391Z,0.60
2023-03-26T14:04:43.789Z,1.70
2023-03-26T14:09:48.991Z,1.00
2023-03-26T14:14:55.331Z,1.30
2023-03-26T14:20:12.034Z,1.20
2023-03-26T14:25:46.275Z,1.47
2023-03-26T14:31:20.822Z,1.63
2023-03-26T14:36:46.609Z,1.60
2023-03-26T14:41:51.776Z,2.00
2023-03-26T14:47:14.863Z,1.73
2023-03-26T14:52:43.043Z,1.70
2023-03-26T14:58:13.661Z,1.70
2023-03-26T15:04:01.250Z,2.10
2023-03-26T15:09:23.814Z,2.27
2023-03-26T15:14:52.838Z,2.00
2023-03-26T15:20:25.970Z,2.10
2023-03-26T15:25:33.231Z,2.23
2023-03-26T15:30:56.691Z,2.03
2023-03-26T15:36:28.390Z,2.30
2023-03-26T15:41:39.667Z,1.90
2023-03-26T15:46:54.832Z,2.50
2023-03-26T15:52:06.570Z,3.03
2023-03-26T15:57:23.050Z,2.17
2023-03-26T16:02:37.337Z,1.77
2023-03-26T16:08:02.839Z,1.70
2023-03-26T16:13:19.612Z,1.67
2023-03-26T16:18:33.903Z,1.60
2023-03-26T16:23:55.848Z,1.60
2023-03-26T16:29:22.283Z,1.53
2023-03-26T16:34:29.491Z,1.27
2023-03-26T16:39:38.619Z,1.37
2023-03-26T16:44:46.565Z,1.40
2023-03-26T16:50:08.139Z,1.13
2023-03-26T16:55:29.807Z,1.23
2023-03-26T17:01:11.025Z,1.13
2023-03-26T17:06:23.916Z,1.30
2023-03-26T17:12:02.583Z,1.20
2023-03-26T17:17:29.541Z,1.60
2023-03-26T17:22:36.387Z,1.40
2023-03-26T17:28:10.720Z,1.60
2023-03-26T17:33:17.751Z,1.37
2023-03-26T17:38:25.334Z,1.40
2023-03-26T17:43:40.184Z,1.73
2023-03-26T17:48:46.836Z,1.63
2023-03-26T17:53:48.879Z,2.20
2023-03-26T17:58:54.732Z,1.27
2023-03-26T18:04:03.466Z,1.60
2023-03-26T18:09:20.251Z,1.40
2023-03-26T18:14:28.388Z,1.60
2023-03-26T18:19:31.894Z,1.17
2023-03-26T18:24:37.949Z,1.23
2023-03-26T18:29:44.270Z,1.37
2023-03-26T18:34:50.009Z,1.30
2023-03-26T18:40:02.372Z,1.93
2023-03-26T18:45:08.629Z,2.30
2023-03-26T18:50:15.450Z,2.60
2023-03-26T18:55:17.185Z,2.43
2023-03-26T19:00:20.891Z,2.60
2023-03-26T19:05:22.620Z,3.00
2023-03-26T19:10:25.118Z,2.60
2023-03-26T19:15:28.736Z,3.00
2023-03-26T19:20:37.239Z,3.80
2023-03-26T19:25:42.153Z,2.93
2023-03-26T19:30:44.036Z,3.10
2023-03-26T19:35:51.675Z,2.97
2023-03-26T19:40:57.428Z,3.17
2023-03-26T19:46:01.288Z,3.40
2023-03-26T19:51:06.060Z,2.80
2023-03-26T19:56:18.431Z,3.97
2023-03-26T20:01:25.531Z,3.07
2023-03-26T20:06:42.395Z,3.37
2023-03-26T20:11:54.171Z,3.50
2023-03-26T20:16:55.801Z,3.27
2023-03-26T20:21:57.569Z,2.87
2023-03-26T20:26:59.200Z,2.93
2023-03-26T20:32:00.760Z,3.00
2023-03-26T20:37:02.666Z,2.13
2023-03-26T20:42:04.315Z,2.70
2023-03-26T20:47:05.870Z,2.17
2023-03-26T20:52:07.824Z,2.27
2023-03-26T20:57:11.882Z,2.53
2023-03-26T21:02:13.797Z,2.17
2023-03-26T21:07:18.446Z,2.47
2023-03-26T21:12:26.729Z,2.03
2023-03-26T21:17:28.708Z,2.43
2023-03-26T21:22:35.345Z,2.10
2023-03-26T21:27:39.243Z,2.00
2023-03-26T21:32:41.617Z,2.23
2023-03-26T21:37:45.525Z,2.10
2023-03-26T21:42:49.486Z,2.10
2023-03-26T21:47:51.367Z,1.97
2023-03-26T21:52:53.310Z,2.50
2023-03-26T21:58:33.582Z,2.43
2023-03-26T22:03:50.752Z,2.10
2023-03-26T22:08:52.467Z,2.43
2023-03-26T22:13:55.493Z,2.67
2023-03-26T22:18:57.203Z,1.97
2023-03-26T22:23:58.832Z,2.03
2023-03-26T22:29:00.883Z,2.00
2023-03-26T22:34:02.396Z,1.90
2023-03-26T22:39:04.557Z,2.00
2023-03-26T22:49:30.317Z,1.80
2023-03-26T22:54:32.031Z,2.23
2023-03-26T22:59:34.054Z,1.80
2023-03-26T23:04:37.496Z,1.87
2023-03-26T23:09:39.193Z,1.93
2023-03-26T23:14:41.499Z,1.80
2023-03-26T23:19:43.907Z,2.10
2023-03-26T23:24:45.644Z,2.33
2023-03-26T23:29:48.040Z,1.80
2023-03-26T23:34:52.201Z,2.00
2023-03-26T23:39:55.084Z,1.90
2023-03-26T23:44:57.416Z,2.20
2023-03-26T23:50:00.086Z,1.80
2023-03-26T23:55:02.026Z,1.83
